createdAt,value
2023-05-05T00:03:44.024Z,102246.34
2023-05-05T00:07:45.498Z,102232.41
2023-05-05T00:11:47.003Z,102225.44
2023-05-05T00:15:49.937Z,102223.56
2023-05-05T00:19:51.408Z,102227.00
2023-05-05T00:23:52.870Z,102224.59
2023-05-05T00:27:54.317Z,102225.22
2023-05-05T00:31:56.438Z,102222.75
2023-05-05T00:35:58.199Z,102220.19
2023-05-05T00:40:00.166Z,102223.44
2023-05-05T00:44:01.693Z,102221.06
2023-05-05T00:48:03.787Z,102214.00
2023-05-05T00:52:07.215Z,102203.22
2023-05-05T00:56:08.895Z,102212.31
2023-05-05T01:00:11.324Z,102211.06
2023-05-05T01:04:12.831Z,102201.47
2023-05-05T01:08:27.542Z,102205.22
2023-05-05T01:12:37.443Z,102201.72
2023-05-05T01:16:43.702Z,102201.66
2023-05-05T01:20:55.614Z,102201.53
2023-05-05T01:25:22.144Z,102199.06
2023-05-05T01:29:34.462Z,102183.16
2023-05-05T01:33:43.880Z,102187.03
2023-05-05T01:38:07.061Z,102177.53
2023-05-05T01:42:13.837Z,102173.03
2023-05-05T01:46:16.482Z,102174.16
2023-05-05T01:50:19.288Z,102168.13
2023-05-05T01:54:24.082Z,102171.50
2023-05-05T01:58:28.098Z,102175.66
2023-05-05T02:02:30.432Z,102172.13
2023-05-05T02:06:33.223Z,102180.88
2023-05-05T02:10:40.739Z,102173.94
2023-05-05T02:14:44.555Z,102169.53
2023-05-05T02:18:49.141Z,102170.47
2023-05-05T02:22:50.815Z,102168.69
2023-05-05T02:26:54.550Z,102170.44
2023-05-05T02:30:59.358Z,102161.69
2023-05-05T02:35:09.139Z,102165.84
2023-05-05T02:39:25.795Z,102161.59
2023-05-05T02:43:31.339Z,102155.41
2023-05-05T02:47:37.168Z,102158.16
2023-05-05T02:51:40.194Z,102159.84
2023-05-05T02:56:17.854Z,102153.53
2023-05-05T03:00:38.365Z,102158.09
2023-05-05T03:05:04.147Z,102160.63
2023-05-05T03:09:14.052Z,102154.53
2023-05-05T03:13:24.653Z,102161.25
2023-05-05T03:17:29.239Z,102158.84
2023-05-05T03:21:32.507Z,102149.44
2023-05-05T03:25:43.829Z,102159.91
2023-05-05T03:29:49.361Z,102161.50
2023-05-05T03:33:51.294Z,102159.94
2023-05-05T03:37:55.967Z,102167.59
2023-05-05T03:41:57.575Z,102171.34
2023-05-05T03:46:02.838Z,102164.38
2023-05-05T03:50:05.132Z,102168.59
2023-05-05T03:54:06.986Z,102160.59
2023-05-05T03:58:08.551Z,102166.66
2023-05-05T04:02:10.159Z,102154.34
2023-05-05T04:06:11.672Z,102156.59
2023-05-05T04:10:13.357Z,102159.09
2023-05-05T04:14:15.083Z,102164.44
2023-05-05T04:18:17.051Z,102164.25
2023-05-05T04:22:19.167Z,102175.81
2023-05-05T04:26:21.010Z,102172.44
2023-05-05T04:30:23.304Z,102172.38
2023-05-05T04:34:24.993Z,102182.78
2023-05-05T04:38:26.967Z,102180.25
2023-05-05T04:42:28.652Z,102185.66
2023-05-05T04:46:30.863Z,102178.81
2023-05-05T04:50:32.570Z,102185.69
2023-05-05T04:54:37.416Z,102175.78
2023-05-05T04:58:38.916Z,102177.59
2023-05-05T05:02:41.503Z,102175.78
2023-05-05T05:06:45.136Z,102174.13
2023-05-05T05:10:47.400Z,102170.91
2023-05-05T05:14:49.055Z,102170.84
2023-05-05T05:18:50.829Z,102162.03
2023-05-05T05:22:52.724Z,102169.81
2023-05-05T05:26:56.286Z,102183.09
2023-05-05T05:30:58.042Z,102204.13
2023-05-05T05:35:00.192Z,102185.00
2023-05-05T05:39:01.916Z,102188.47
2023-05-05T05:43:04.098Z,102195.66
2023-05-05T05:47:06.833Z,102186.72
2023-05-05T05:51:08.419Z,102189.59
2023-05-05T05:55:10.089Z,102179.81
2023-05-05T05:59:12.676Z,102187.00
2023-05-05T06:03:15.815Z,102187.75
2023-05-05T06:07:17.692Z,102195.78
2023-05-05T06:11:19.700Z,102200.16
2023-05-05T06:15:21.451Z,102208.09
2023-05-05T06:19:23.524Z,102195.66
2023-05-05T06:23:25.614Z,102200.28
2023-05-05T06:27:32.096Z,102215.16
2023-05-05T06:31:33.576Z,102217.19
2023-05-05T06:35:35.125Z,102222.50
2023-05-05T06:39:36.721Z,102219.03
2023-05-05T06:43:38.130Z,102223.56
2023-05-05T06:47:44.684Z,102221.81
2023-05-05T06:51:46.180Z,102222.66
2023-05-05T06:55:48.228Z,102220.94
2023-05-05T06:59:49.689Z,102209.38
2023-05-05T07:03:52.195Z,102211.16
2023-05-05T07:07:55.151Z,102199.59
2023-05-05T07:11:56.741Z,102218.25
2023-05-05T07:15:58.849Z,102228.03
2023-05-05T07:20:00.414Z,102232.34
2023-05-05T07:24:05.340Z,102239.41
2023-05-05T07:28:07.004Z,102233.38
2023-05-05T07:32:08.499Z,102248.50
2023-05-05T07:36:09.987Z,102252.03
2023-05-05T07:40:12.022Z,102239.50
2023-05-05T07:44:13.582Z,102235.03
2023-05-05T07:48:15.222Z,102251.13
2023-05-05T07:52:16.625Z,102237.81
2023-05-05T07:56:19.304Z,102244.97
2023-05-05T08:00:22.050Z,102240.25
2023-05-05T08:04:23.935Z,102242.84
2023-05-05T08:08:26.903Z,102245.50
2023-05-05T08:12:28.369Z,102222.44
2023-05-05T08:16:29.880Z,102220.53
2023-05-05T08:20:31.617Z,102229.75
2023-05-05T08:24:33.137Z,102228.94
2023-05-05T08:28:36.392Z,102222.69
2023-05-05T08:32:38.407Z,102228.97
2023-05-05T08:36:40.049Z,102246.38
2023-05-05T08:40:42.144Z,102233.69
2023-05-05T08:44:43.589Z,102241.28
2023-05-05T08:48:45.909Z,102253.78
2023-05-05T08:52:53.628Z,102251.94
2023-05-05T08:56:59.727Z,102252.06
2023-05-05T09:01:01.595Z,102242.25
2023-05-05T09:05:05.371Z,102254.69
2023-05-05T09:09:08.105Z,102254.56
2023-05-05T09:13:09.653Z,102243.88
2023-05-05T09:17:25.141Z,102266.22
2023-05-05T09:21:27.689Z,102267.03
2023-05-05T09:25:29.171Z,102273.13
2023-05-05T09:29:30.865Z,102257.94
2023-05-05T09:33:32.307Z,102257.00
2023-05-05T09:37:33.770Z,102262.56
2023-05-05T09:41:39.763Z,102266.22
2023-05-05T09:45:41.221Z,102262.56
2023-05-05T09:49:42.666Z,102272.38
2023-05-05T09:53:44.220Z,102244.81
2023-05-05T09:57:47.259Z,102258.06
2023-05-05T10:01:49.881Z,102245.03
2023-05-05T10:05:53.903Z,102250.94
2023-05-05T10:09:55.398Z,102255.59
2023-05-05T10:13:58.035Z,102239.63
2023-05-05T10:18:07.838Z,102250.28
2023-05-05T10:22:10.745Z,102255.19
2023-05-05T10:26:13.739Z,102256.09
2023-05-05T10:30:23.275Z,102244.94
2023-05-05T10:35:02.776Z,102244.47
2023-05-05T10:39:09.191Z,102220.44
2023-05-05T10:43:10.977Z,102227.94
2023-05-05T10:47:13.057Z,102236.03
2023-05-05T10:51:39.514Z,102231.78
2023-05-05T10:56:04.427Z,102237.25
2023-05-05T11:00:08.463Z,102258.75
2023-05-05T11:04:20.917Z,102243.72
2023-05-05T11:08:28.893Z,102246.28
2023-05-05T11:12:31.850Z,102275.13
2023-05-05T11:16:47.211Z,102248.47
2023-05-05T11:20:48.846Z,102244.00
2023-05-05T11:24:50.406Z,102250.00
2023-05-05T11:28:59.543Z,102261.44
2023-05-05T11:33:27.327Z,102250.38
2023-05-05T11:37:28.996Z,102247.97
2023-05-05T11:41:30.358Z,102249.09
2023-05-05T11:45:32.092Z,102225.72
2023-05-05T11:49:38.742Z,102214.78
2023-05-05T11:53:45.026Z,102213.69
2023-05-05T11:57:46.504Z,102226.50
2023-05-05T12:01:48.015Z,102213.44
2023-05-05T12:05:54.402Z,102215.09
2023-05-05T12:09:56.490Z,102202.13
2023-05-05T12:14:08.369Z,102215.34
2023-05-05T12:18:19.756Z,102205.19
2023-05-05T12:22:24.179Z,102211.06
2023-05-05T12:26:29.305Z,102208.81
2023-05-05T12:30:30.893Z,102183.03
2023-05-05T12:34:32.821Z,102155.25
2023-05-05T12:38:35.756Z,102168.91
2023-05-05T12:42:41.470Z,102166.56
2023-05-05T12:46:47.198Z,102172.84
2023-05-05T12:50:48.661Z,102156.94
2023-05-05T12:54:57.036Z,102141.47
2023-05-05T12:58:58.606Z,102131.72
2023-05-05T13:03:00.371Z,102139.81
2023-05-05T13:07:12.957Z,102135.81
2023-05-05T13:11:14.412Z,102147.06
2023-05-05T13:15:16.253Z,102138.22
2023-05-05T13:19:17.981Z,102130.97
2023-05-05T13:23:19.864Z,102135.50
2023-05-05T13:27:21.404Z,102131.06
2023-05-05T13:31:22.949Z,102132.00
2023-05-05T13:35:24.590Z,102121.81
2023-05-05T13:39:26.107Z,102121.06
2023-05-05T13:43:27.586Z,102123.56
2023-05-05T13:47:29.288Z,102123.47
2023-05-05T13:51:30.997Z,102129.47
2023-05-05T13:55:32.552Z,102125.47
2023-05-05T13:59:34.021Z,102114.72
2023-05-05T14:03:35.516Z,102119.16
2023-05-05T14:07:36.997Z,102113.63
2023-05-05T14:11:38.478Z,102104.50
2023-05-05T14:15:39.966Z,102099.97
2023-05-05T14:19:41.686Z,102123.44
2023-05-05T14:23:43.172Z,102133.81
2023-05-05T14:27:44.814Z,102111.66
2023-05-05T14:31:46.417Z,102117.84
2023-05-05T14:35:48.222Z,102109.88
2023-05-05T14:39:49.643Z,102107.16
2023-05-05T14:43:51.123Z,102112.38
2023-05-05T14:47:52.688Z,102095.53
2023-05-05T14:51:55.483Z,102091.25
2023-05-05T14:55:58.207Z,102081.41
2023-05-05T14:59:59.722Z,102090.94
2023-05-05T15:04:01.447Z,102089.31
2023-05-05T15:08:03.016Z,102090.19
2023-05-05T15:12:04.862Z,102095.59
2023-05-05T15:16:07.213Z,102081.41
2023-05-05T15:20:09.359Z,102092.16
2023-05-05T15:24:10.918Z,102087.59
2023-05-05T15:28:12.442Z,102078.78
2023-05-05T15:32:14.172Z,102082.38
2023-05-05T15:36:17.438Z,102097.47
2023-05-05T15:40:19.006Z,102070.78
2023-05-05T15:44:20.617Z,102097.47
2023-05-05T15:48:22.031Z,102091.22
2023-05-05T15:52:23.642Z,102087.69
2023-05-05T15:56:27.284Z,102083.25
2023-05-05T16:00:28.815Z,102080.56
2023-05-05T16:04:30.335Z,102100.06
2023-05-05T16:08:32.049Z,102091.72
2023-05-05T16:12:33.550Z,102074.16
2023-05-05T16:16:35.165Z,102059.97
2023-05-05T16:20:36.805Z,102056.56
2023-05-05T16:24:38.299Z,102049.50
2023-05-05T16:28:39.749Z,102055.59
2023-05-05T16:32:41.701Z,102056.38
2023-05-05T16:36:44.406Z,102046.84
2023-05-05T16:40:46.141Z,102036.19
2023-05-05T16:44:47.556Z,102050.31
2023-05-05T16:48:48.975Z,102040.47
2023-05-05T16:52:50.747Z,102043.25
2023-05-05T16:56:52.325Z,102027.09
2023-05-05T17:00:54.537Z,102022.72
2023-05-05T17:04:56.228Z,102022.56
2023-05-05T17:08:57.684Z,102003.16
2023-05-05T17:12:59.129Z,102010.06
2023-05-05T17:17:00.711Z,102011.94
2023-05-05T17:21:02.479Z,102022.69
2023-05-05T17:25:05.144Z,102021.66
2023-05-05T17:29:06.606Z,102011.78
2023-05-05T17:33:08.086Z,102021.66
2023-05-05T17:37:09.695Z,102010.25
2023-05-05T17:41:11.354Z,102009.13
2023-05-05T17:45:12.954Z,102016.19
2023-05-05T17:49:14.496Z,102000.47
2023-05-05T17:53:16.013Z,102010.97
2023-05-05T17:57:20.780Z,102015.47
2023-05-05T18:01:23.788Z,102023.00
2023-05-05T18:05:25.317Z,102011.53
2023-05-05T18:09:27.290Z,102019.47
2023-05-05T18:13:28.861Z,102015.22
2023-05-05T18:17:30.620Z,102001.13
2023-05-05T18:21:32.305Z,102005.50
2023-05-05T18:25:33.805Z,101993.09
2023-05-05T18:29:35.929Z,101999.81
2023-05-05T18:33:37.466Z,101997.91
2023-05-05T18:37:39.462Z,101992.03
2023-05-05T18:41:40.993Z,102006.00
2023-05-05T18:45:42.549Z,102010.47
2023-05-05T18:49:45.328Z,102002.91
2023-05-05T18:53:51.243Z,101998.03
2023-05-05T18:57:53.288Z,101990.25
2023-05-05T19:01:54.930Z,102000.06
2023-05-05T19:05:56.391Z,102004.13
2023-05-05T19:09:57.841Z,102010.56
2023-05-05T19:13:59.263Z,101999.06
2023-05-05T19:18:00.885Z,101999.84
2023-05-05T19:22:03.621Z,101997.38
2023-05-05T19:26:05.667Z,102014.09
2023-05-05T19:30:07.727Z,102008.09
2023-05-05T19:34:09.135Z,102005.94
2023-05-05T19:38:10.910Z,102004.91
2023-05-05T19:42:12.338Z,101992.44
2023-05-05T19:46:14.443Z,102003.53
2023-05-05T19:50:16.046Z,102007.97
2023-05-05T19:54:18.072Z,102006.38
2023-05-05T19:58:19.510Z,102005.97
2023-05-05T20:02:26.481Z,102007.00
2023-05-05T20:06:28.003Z,102009.56
2023-05-05T20:10:29.484Z,102010.44
2023-05-05T20:14:30.926Z,102005.97
2023-05-05T20:18:32.515Z,102006.81
2023-05-05T20:22:34.342Z,102005.47
2023-05-05T20:26:36.564Z,102012.22
2023-05-05T20:30:38.095Z,102010.63
2023-05-05T20:34:39.588Z,102012.16
2023-05-05T20:38:41.108Z,102016.88
2023-05-05T20:42:42.724Z,102020.41
2023-05-05T20:46:44.365Z,102016.94
2023-05-05T20:50:46.021Z,102010.88
2023-05-05T20:54:47.478Z,102016.00
2023-05-05T20:58:49.023Z,102018.84
2023-05-05T21:02:50.722Z,102016.94
2023-05-05T21:06:52.233Z,102030.94
2023-05-05T21:10:53.674Z,102012.44
2023-05-05T21:14:58.426Z,102018.38
2023-05-05T21:18:59.922Z,102005.28
2023-05-05T21:23:01.553Z,102009.59
2023-05-05T21:27:03.098Z,102007.78
2023-05-05T21:31:21.318Z,101998.25
2023-05-05T21:35:23.815Z,101998.25
2023-05-05T21:39:25.426Z,101993.59
2023-05-05T21:43:28.639Z,101997.13
2023-05-05T21:47:30.108Z,101988.75
2023-05-05T21:51:31.917Z,101987.84
2023-05-05T21:55:33.334Z,101985.22
2023-05-05T21:59:34.758Z,101986.09
2023-05-05T22:03:36.270Z,101972.81
2023-05-05T22:07:37.994Z,101969.94
2023-05-05T22:11:39.437Z,101970.16
2023-05-05T22:15:46.822Z,101969.22
2023-05-05T22:19:50.477Z,101962.09
2023-05-05T22:23:52.141Z,101969.13
2023-05-05T22:27:53.659Z,101969.19
2023-05-05T22:31:55.155Z,101969.19
2023-05-05T22:35:57.030Z,101966.78
2023-05-05T22:39:58.498Z,101958.63
2023-05-05T22:43:59.966Z,101954.09
2023-05-05T22:48:01.675Z,101950.59
2023-05-05T22:52:03.414Z,101943.69
2023-05-05T22:56:05.322Z,101952.47
2023-05-05T23:00:08.772Z,101943.66
2023-05-05T23:04:10.465Z,101955.09
2023-05-05T23:08:11.932Z,101943.53
2023-05-05T23:12:13.647Z,101949.78
2023-05-05T23:16:15.331Z,101945.16
2023-05-05T23:20:17.097Z,101940.19
2023-05-05T23:24:18.807Z,101945.47
2023-05-05T23:28:20.317Z,101944.34
2023-05-05T23:32:21.920Z,101953.22
2023-05-05T23:36:23.387Z,101943.59
2023-05-05T23:40:24.900Z,101937.13
2023-05-05T23:44:27.544Z,101932.16
2023-05-05T23:48:28.972Z,101936.38
2023-05-05T23:52:30.430Z,101938.69
2023-05-05T23:56:31.829Z,101927.88
